Time;durP1;ratioP1;P1;durP2;ratioP2;P2;SDS_P1;SDS_P2;PMS_P1;PMS_P2;Temp;Humidity;BMP_temperature;BMP_pressure;BME280_temperature;BME280_humidity;BME280_pressure;Samples;Min_cycle;Max_cycle;Signal;HPM_P1;HPM_P2
2023/08/13 00:04:35;;;;;;;0.20;0.10;;;;;;;24.50;nan;101511.72;10475368;28;20083;-79
2023/08/13 00:09:37;;;;;;;0.00;0.00;;;;;;;24.63;nan;101501.78;10479487;28;20570;-79
2023/08/13 00:14:39;;;;;;;0.30;0.20;;;;;;;24.88;nan;101520.53;10484485;28;20048;-79
2023/08/13 00:19:40;;;;;;;0.20;0.10;;;;;;;24.63;nan;101514.94;10480935;28;20052;-79
2023/08/13 00:24:42;;;;;;;0.43;0.30;;;;;;;25.31;nan;101537.88;10490809;28;20157;-79
2023/08/13 00:29:44;;;;;;;0.82;0.68;;;;;;;24.54;nan;101522.16;10474233;28;20315;-79
2023/08/13 00:34:45;;;;;;;0.00;0.00;;;;;;;24.84;nan;101529.38;10493315;28;20059;-79
2023/08/13 00:39:47;;;;;;;0.80;0.17;;;;;;;24.57;nan;101523.84;10469916;28;20048;-79
2023/08/13 00:44:49;;;;;;;0.15;0.15;;;;;;;24.03;nan;101528.50;10473956;28;20351;-79
2023/08/13 00:49:51;;;;;;;0.98;0.20;;;;;;;23.94;nan;101522.56;10461696;28;20060;-80
2023/08/13 00:54:53;;;;;;;0.90;0.25;;;;;;;23.65;nan;101516.94;10492079;28;20045;-79
2023/08/13 01:00:02;;;;;;;0.30;0.22;;;;;;;23.75;nan;101515.03;10473132;28;20126;-79
2023/08/13 01:05:07;;;;;;;0.20;0.20;;;;;;;23.49;nan;101508.47;10483030;28;20044;-79
2023/08/13 01:10:33;;;;;;;0.10;0.10;;;;;;;23.99;nan;101521.59;10489749;28;20302;-79
2023/08/13 01:15:37;;;;;;;0.00;0.00;;;;;;;23.65;nan;101526.59;10452194;28;20040;-79
2023/08/13 01:20:42;;;;;;;0.00;0.00;;;;;;;23.73;nan;101524.69;10471765;28;20058;-79
2023/08/13 01:26:12;;;;;;;0.17;0.08;;;;;;;23.51;nan;101524.22;10477981;28;20040;-79
2023/08/13 01:31:27;;;;;;;0.00;0.00;;;;;;;23.81;nan;101528.06;10474599;28;20410;-79
2023/08/13 01:36:31;;;;;;;0.05;0.05;;;;;;;23.49;nan;101520.78;10479374;28;20036;-79
2023/08/13 01:41:45;;;;;;;0.30;0.20;;;;;;;23.56;nan;101532.91;10466794;28;20410;-79
2023/08/13 01:46:47;;;;;;;0.25;0.10;;;;;;;23.59;nan;101532.84;10484995;28;20052;-79
2023/08/13 01:51:49;;;;;;;0.85;0.73;;;;;;;23.67;nan;101536.19;10462074;28;20049;-79
2023/08/13 01:56:52;;;;;;;0.00;0.00;;;;;;;23.89;nan;101525.25;10482310;28;20044;-79
2023/08/13 02:01:53;;;;;;;0.00;0.00;;;;;;;23.71;nan;101532.63;10457213;28;20044;-79
2023/08/13 02:06:56;;;;;;;0.05;0.05;;;;;;;23.80;nan;101530.69;10472407;28;20048;-79
2023/08/13 02:11:57;;;;;;;0.28;0.20;;;;;;;23.43;nan;101530.47;10477362;28;20503;-79
2023/08/13 02:16:59;;;;;;;0.15;0.15;;;;;;;23.57;nan;101535.50;10470452;28;20486;-79
2023/08/13 02:22:01;;;;;;;0.10;0.10;;;;;;;23.47;nan;101543.59;10458249;28;20182;-79
2023/08/13 02:27:04;;;;;;;0.15;0.03;;;;;;;23.48;nan;101537.44;10470136;28;20079;-79
2023/08/13 02:32:05;;;;;;;0.20;0.15;;;;;;;23.32;nan;101529.81;10477200;28;20052;-79
2023/08/13 02:37:07;;;;;;;0.05;0.05;;;;;;;23.42;nan;101531.38;10469984;28;20041;-79
2023/08/13 02:42:09;;;;;;;0.00;0.00;;;;;;;23.31;nan;101530.72;10497521;28;20041;-79
2023/08/13 02:47:11;;;;;;;0.00;0.00;;;;;;;23.34;nan;101514.91;10483665;28;20487;-79
2023/08/13 02:52:12;;;;;;;0.05;0.03;;;;;;;23.21;nan;101508.09;10483219;28;20052;-79
2023/08/13 02:57:14;;;;;;;1.33;0.65;;;;;;;23.59;nan;101514.44;10506031;28;20041;-79
2023/08/13 03:02:16;;;;;;;0.10;0.10;;;;;;;23.77;nan;101523.72;10504251;28;20052;-79
2023/08/13 03:07:18;;;;;;;0.05;0.05;;;;;;;23.39;nan;101505.16;10476658;28;20106;-79
2023/08/13 03:12:20;;;;;;;0.50;0.22;;;;;;;23.12;nan;101517.84;10476653;28;20048;-79
2023/08/13 03:17:22;;;;;;;0.10;0.10;;;;;;;23.44;nan;101513.81;10477421;28;20033;-79
2023/08/13 03:22:23;;;;;;;0.17;0.17;;;;;;;22.68;nan;101494.91;10485209;28;20048;-79
2023/08/13 03:27:25;;;;;;;0.00;0.00;;;;;;;22.93;nan;101493.66;10476711;28;20534;-80
2023/08/13 03:32:29;;;;;;;0.13;0.13;;;;;;;22.81;nan;101489.47;10475982;28;20040;-79
2023/08/13 03:37:31;;;;;;;0.00;0.00;;;;;;;22.79;nan;101493.88;10475755;28;20495;-78
2023/08/13 03:42:33;;;;;;;0.10;0.10;;;;;;;22.58;nan;101473.19;10504083;28;20040;-79
2023/08/13 03:47:34;;;;;;;0.20;0.10;;;;;;;22.50;nan;101468.91;10476384;28;20041;-78
2023/08/13 03:52:36;;;;;;;0.40;0.20;;;;;;;23.04;nan;101490.84;10476772;28;20429;-79
2023/08/13 03:57:40;;;;;;;0.30;0.20;;;;;;;22.79;nan;101499.13;10458989;28;20121;-79
2023/08/13 04:02:48;;;;;;;0.20;0.10;;;;;;;22.87;nan;101498.13;10474056;28;20577;-79
2023/08/13 04:07:51;;;;;;;0.30;0.20;;;;;;;22.71;nan;101490.50;10491828;28;20510;-79
2023/08/13 04:12:55;;;;;;;0.47;0.10;;;;;;;23.07;nan;101503.91;10474237;28;20131;-79
2023/08/13 04:17:59;;;;;;;0.35;0.35;;;;;;;22.68;nan;101480.03;10483577;28;20135;-79
2023/08/13 04:23:01;;;;;;;0.57;0.38;;;;;;;23.34;nan;101496.50;10473771;28;20094;-79
2023/08/13 04:28:04;;;;;;;0.00;0.00;;;;;;;23.12;nan;101498.59;10474593;28;20178;-79
2023/08/13 04:33:09;;;;;;;0.52;0.20;;;;;;;23.47;nan;101501.53;10459483;28;20051;-79
2023/08/13 04:38:11;;;;;;;3.10;0.08;;;;;;;23.45;nan;101507.66;10491972;28;20506;-79
2023/08/13 04:43:16;;;;;;;0.15;0.15;;;;;;;23.64;nan;101522.22;10464547;28;20036;-79
2023/08/13 04:48:47;;;;;;;0.43;0.13;;;;;;;23.71;nan;101532.63;10473214;28;20051;-79
2023/08/13 04:53:56;;;;;;;0.00;0.00;;;;;;;23.42;nan;101510.34;10472028;28;20083;-79
2023/08/13 04:59:02;;;;;;;0.25;0.20;;;;;;;23.27;nan;101494.88;10480886;28;20037;-79
2023/08/13 05:04:06;;;;;;;0.22;0.10;;;;;;;23.43;nan;101495.44;10501065;28;20041;-79
2023/08/13 05:09:11;;;;;;;0.70;0.43;;;;;;;23.69;nan;101501.97;10487681;28;20036;-79
2023/08/13 05:14:12;;;;;;;0.30;0.25;;;;;;;23.98;nan;101514.59;10482409;28;20048;-79
2023/08/13 05:19:14;;;;;;;0.28;0.20;;;;;;;24.35;nan;101521.69;10471305;28;20045;-79
2023/08/13 05:24:16;;;;;;;0.60;0.20;;;;;;;24.35;nan;101511.16;10472281;28;20463;-79
2023/08/13 05:29:18;;;;;;;0.10;0.00;;;;;;;24.58;nan;101508.88;10479224;28;20028;-79
2023/08/13 05:34:20;;;;;;;0.55;0.30;;;;;;;24.32;nan;101508.59;10481906;28;20043;-79
2023/08/13 05:39:23;;;;;;;0.55;0.38;;;;;;;24.36;nan;101510.25;10484760;28;20040;-79
2023/08/13 05:44:24;;;;;;;0.00;0.00;;;;;;;24.58;nan;101517.69;10480510;28;20044;-79
2023/08/13 05:49:26;;;;;;;0.13;0.13;;;;;;;24.02;nan;101505.72;10474337;28;20509;-78
2023/08/13 05:54:28;;;;;;;0.00;0.00;;;;;;;24.49;nan;101500.31;10470823;28;20565;-79
2023/08/13 05:59:30;;;;;;;0.10;0.00;;;;;;;24.12;nan;101490.63;10475297;28;20517;-79
2023/08/13 06:04:34;;;;;;;0.00;0.00;;;;;;;24.42;nan;101505.75;10470208;28;20045;-79
2023/08/13 06:09:36;;;;;;;0.08;0.03;;;;;;;24.77;nan;101504.09;10479305;28;20036;-79
2023/08/13 06:14:38;;;;;;;0.20;0.10;;;;;;;24.90;nan;101515.19;10470247;28;20118;-79
2023/08/13 06:19:39;;;;;;;0.10;0.10;;;;;;;25.21;nan;101536.38;10471576;28;20133;-79
2023/08/13 06:24:41;;;;;;;0.60;0.40;;;;;;;25.83;nan;101555.91;10453479;28;20040;-79
2023/08/13 06:29:43;;;;;;;0.10;0.10;;;;;;;25.26;nan;101539.78;10469533;28;20089;-79
2023/08/13 06:34:56;;;;;;;0.20;0.20;;;;;;;24.82;nan;101552.28;10464953;28;20049;-79
2023/08/13 06:39:58;;;;;;;0.00;0.00;;;;;;;25.35;nan;101560.63;10479971;28;20028;-79
2023/08/13 06:45:06;;;;;;;0.75;0.40;;;;;;;25.38;nan;101566.75;10497878;28;20063;-78
2023/08/13 06:50:08;;;;;;;0.47;0.47;;;;;;;25.63;nan;101565.22;10488629;28;20053;-79
2023/08/13 06:55:10;;;;;;;0.30;0.20;;;;;;;26.20;nan;101564.59;10479480;28;20510;-79
2023/08/13 07:00:13;;;;;;;0.65;0.20;;;;;;;26.16;nan;101587.56;10473803;28;20060;-79
2023/08/13 07:05:16;;;;;;;0.00;0.00;;;;;;;26.02;nan;101581.78;10481234;28;20094;-79
2023/08/13 07:10:18;;;;;;;0.00;0.00;;;;;;;26.25;nan;101589.94;10486328;28;20036;-80
2023/08/13 07:15:19;;;;;;;0.22;0.20;;;;;;;27.10;nan;101606.81;10499615;28;20100;-79
2023/08/13 07:20:21;;;;;;;0.35;0.35;;;;;;;27.07;nan;101616.56;10486398;28;20075;-78
2023/08/13 07:25:23;;;;;;;0.57;0.28;;;;;;;27.72;nan;101624.16;10501009;28;20068;-79
2023/08/13 07:30:25;;;;;;;0.43;0.30;;;;;;;27.63;nan;101624.47;10466208;28;20072;-80
2023/08/13 07:35:26;;;;;;;0.35;0.35;;;;;;;28.46;nan;101631.22;10470987;28;20056;-80
2023/08/13 07:40:29;;;;;;;0.10;0.10;;;;;;;26.98;nan;101619.47;10493871;28;20048;-80
2023/08/13 07:45:32;;;;;;;1.10;1.00;;;;;;;28.60;nan;101636.00;10492337;28;20048;-80
2023/08/13 07:50:34;;;;;;;0.00;0.00;;;;;;;29.72;nan;101638.56;10472473;28;20068;-80
2023/08/13 07:55:36;;;;;;;0.00;0.00;;;;;;;29.07;nan;101638.59;10488139;28;20040;-80
2023/08/13 08:00:37;;;;;;;0.10;0.10;;;;;;;28.56;nan;101647.66;10482152;28;20056;-81
2023/08/13 08:05:41;;;;;;;0.35;0.20;;;;;;;29.12;nan;101631.31;10469040;28;20483;-80
2023/08/13 08:10:43;;;;;;;0.10;0.00;;;;;;;29.68;nan;101629.00;10496773;28;20511;-80
2023/08/13 08:15:44;;;;;;;7.63;0.30;;;;;;;30.91;nan;101640.31;10471044;28;20488;-80
2023/08/13 08:20:46;;;;;;;0.00;0.00;;;;;;;31.71;nan;101642.63;10461756;28;20529;-81
2023/08/13 08:25:48;;;;;;;0.10;0.00;;;;;;;30.80;nan;101629.31;10495666;28;20052;-80
2023/08/13 08:30:49;;;;;;;0.00;0.00;;;;;;;31.28;nan;101635.88;10483195;28;20117;-82
2023/08/13 08:35:51;;;;;;;0.00;0.00;;;;;;;30.52;nan;101630.63;10471790;28;20032;-81
2023/08/13 08:40:53;;;;;;;0.15;0.15;;;;;;;30.43;nan;101625.72;10509255;28;20124;-80
2023/08/13 08:45:57;;;;;;;0.38;0.20;;;;;;;29.94;nan;101624.38;10329830;28;20036;-80
2023/08/13 08:50:59;;;;;;;0.10;0.10;;;;;;;30.25;nan;101630.97;9898636;29;20056;-81
2023/08/13 08:59:24;;;;;;;1.85;1.00;;;;;;;31.22;100.00;101633.53;10700400;27;20452;-81
2023/08/13 09:04:25;;;;;;;0.10;0.10;;;;;;;30.16;100.00;101628.72;10583227;27;20045;-82
2023/08/13 09:09:27;;;;;;;0.00;0.00;;;;;;;29.93;100.00;101627.09;10348599;28;20035;-82
2023/08/13 09:14:28;;;;;;;0.17;0.10;;;;;;;29.81;100.00;101626.66;9924725;29;20065;-82
2023/08/13 09:22:07;;;;;;;3.00;0.63;;;;;;;29.86;100.00;101627.31;10484937;28;20466;-81
2023/08/13 09:27:09;;;;;;;0.00;0.00;;;;;;;29.03;100.00;101626.38;10441231;28;20053;-81
2023/08/13 09:32:11;;;;;;;0.00;0.00;;;;;;;29.91;100.00;101624.50;10439622;28;20455;-82
2023/08/13 09:37:12;;;;;;;0.15;0.10;;;;;;;29.12;100.00;101610.06;10408950;28;20067;-81
2023/08/13 09:42:17;;;;;;;0.05;0.00;;;;;;;29.55;100.00;101612.75;10440216;28;20091;-80
2023/08/13 09:47:23;;;;;;;1.55;0.45;;;;;;;28.87;100.00;101612.00;10429744;28;20041;-81
2023/08/13 09:52:27;;;;;;;0.10;0.10;;;;;;;29.22;100.00;101609.72;10433126;28;20088;-82
2023/08/13 09:57:32;;;;;;;0.32;0.20;;;;;;;29.85;100.00;101607.03;10421574;28;20049;-82
2023/08/13 10:02:35;;;;;;;0.08;0.08;;;;;;;28.94;100.00;101605.50;10445528;28;20060;-82
2023/08/13 10:07:37;;;;;;;0.00;0.00;;;;;;;28.90;100.00;101593.31;10474575;28;20124;-82
2023/08/13 10:12:39;;;;;;;0.47;0.10;;;;;;;29.52;100.00;101594.28;10429450;28;20512;-82
2023/08/13 10:17:45;;;;;;;0.10;0.10;;;;;;;28.86;100.00;101586.38;10422022;28;20076;-83
2023/08/13 10:22:48;;;;;;;0.00;0.00;;;;;;;30.39;100.00;101588.66;10440891;28;20049;-82
2023/08/13 10:27:52;;;;;;;0.80;0.22;;;;;;;29.90;100.00;101582.91;10441960;28;20041;-82
2023/08/13 10:32:58;;;;;;;0.00;0.00;;;;;;;29.28;100.00;101577.59;10419174;28;20057;-81
2023/08/13 10:38:03;;;;;;;;;;;;;;;29.94;100.00;101576.56;10409003;28;20042;-81
2023/08/13 10:43:05;;;;;;;0.22;0.10;;;;;;;29.43;100.00;101570.78;10429663;28;19936;-81
2023/08/13 10:48:08;;;;;;;0.30;0.30;;;;;;;29.68;100.00;101564.41;10405116;28;20070;-81
2023/08/13 10:53:11;;;;;;;0.00;0.00;;;;;;;30.01;100.00;101571.84;10408919;28;20419;-83
2023/08/13 10:58:35;;;;;;;0.20;0.10;;;;;;;28.84;100.00;101567.06;10414541;28;20049;-84
2023/08/13 11:03:55;;;;;;;0.00;0.00;;;;;;;28.97;100.00;101569.13;10393047;28;20077;-82
2023/08/13 11:08:57;;;;;;;1.27;0.10;;;;;;;29.29;100.00;101569.56;10419117;28;20133;-82
2023/08/13 11:13:59;;;;;;;0.30;0.30;;;;;;;29.98;100.00;101570.16;10408276;28;20050;-81
2023/08/13 11:19:04;;;;;;;0.00;0.00;;;;;;;29.12;100.00;101566.75;10415969;28;20488;-81
2023/08/13 11:24:09;;;;;;;0.20;0.20;;;;;;;28.89;100.00;101567.72;10416810;28;20468;-82
2023/08/13 11:29:11;;;;;;;0.10;0.10;;;;;;;29.91;100.00;101568.72;10399200;28;20409;-80
2023/08/13 11:34:14;;;;;;;0.00;0.00;;;;;;;29.37;100.00;101558.66;10415074;28;20056;-82
2023/08/13 11:39:18;;;;;;;0.52;0.32;;;;;;;29.65;100.00;101559.22;10414262;28;20449;-82
2023/08/13 11:44:20;;;;;;;0.30;0.10;;;;;;;30.18;100.00;101558.63;10413465;28;20052;-82
2023/08/13 11:49:22;;;;;;;0.08;0.00;;;;;;;30.10;100.00;101557.25;10402154;28;20049;-83
2023/08/13 11:54:24;;;;;;;0.10;0.10;;;;;;;30.74;100.00;101560.47;10414560;28;20053;-80
2023/08/13 11:59:29;;;;;;;0.47;0.38;;;;;;;30.84;100.00;101553.75;10414151;28;20144;-82
2023/08/13 12:04:32;;;;;;;0.08;0.08;;;;;;;30.16;100.00;101554.31;10396242;28;20049;-83
2023/08/13 12:09:38;;;;;;;1.00;0.70;;;;;;;30.76;100.00;101554.13;10412549;28;20128;-80
2023/08/13 12:14:44;;;;;;;0.00;0.00;;;;;;;30.41;100.00;101545.19;10396522;28;20417;-81
2023/08/13 12:19:46;;;;;;;0.10;0.10;;;;;;;31.19;100.00;101539.66;10411659;28;20052;-82
2023/08/13 12:24:48;;;;;;;0.00;0.00;;;;;;;30.26;100.00;101554.75;10400070;28;20060;-82
2023/08/13 12:29:49;;;;;;;1.40;0.20;;;;;;;30.60;100.00;101537.22;10397461;28;20399;-81
2023/08/13 12:34:51;;;;;;;2.72;0.20;;;;;;;30.28;100.00;101540.44;10409720;28;20073;-81
2023/08/13 12:39:53;;;;;;;0.10;0.10;;;;;;;30.65;100.00;101525.41;10411314;28;20124;-80
2023/08/13 12:44:54;;;;;;;0.52;0.38;;;;;;;30.67;100.00;101531.50;10411068;28;20504;-82
2023/08/13 12:49:57;;;;;;;0.00;0.00;;;;;;;31.19;100.00;101527.19;10436542;28;20068;-83
2023/08/13 12:54:58;;;;;;;0.10;0.10;;;;;;;31.59;100.00;101525.13;10410330;28;20061;-82
2023/08/13 13:00:00;;;;;;;0.45;0.28;;;;;;;30.04;100.00;101527.41;10395095;28;20037;-81
2023/08/13 13:05:02;;;;;;;0.00;0.00;;;;;;;30.10;100.00;101538.66;10395058;28;20056;-83
2023/08/13 13:10:04;;;;;;;0.10;0.10;;;;;;;30.93;100.00;101523.16;10395708;28;20045;-81
2023/08/13 13:15:06;;;;;;;0.08;0.08;;;;;;;31.51;100.00;101524.66;10412094;28;20152;-81
2023/08/13 13:20:11;;;;;;;0.30;0.30;;;;;;;30.47;100.00;101523.63;10443997;28;20042;-85
2023/08/13 13:25:13;;;;;;;0.52;0.10;;;;;;;30.52;100.00;101517.19;10394950;28;20107;-83
2023/08/13 13:30:15;;;;;;;0.10;0.10;;;;;;;30.97;100.00;101512.31;10407557;28;20398;-85
2023/08/13 13:35:17;;;;;;;0.05;0.03;;;;;;;30.69;100.00;101512.81;10399719;28;20045;-84
2023/08/13 13:40:19;;;;;;;0.00;0.00;;;;;;;31.15;100.00;101512.34;10431618;28;20045;-83
2023/08/13 13:45:22;;;;;;;0.00;0.00;;;;;;;30.47;100.00;101505.03;10403658;28;20461;-80
2023/08/13 13:50:24;;;;;;;0.00;0.00;;;;;;;30.45;100.00;101507.75;10396268;28;20043;-82
2023/08/13 13:55:26;;;;;;;0.00;0.00;;;;;;;31.14;100.00;101505.28;10409256;28;20056;-81
2023/08/13 14:00:27;;;;;;;0.00;0.00;;;;;;;32.02;100.00;101507.75;10405907;28;20041;-82
2023/08/13 14:05:29;;;;;;;0.30;0.22;;;;;;;31.69;100.00;101490.88;10402368;28;20523;-82
2023/08/13 14:10:32;;;;;;;0.47;0.43;;;;;;;31.71;100.00;101498.78;10419428;28;20044;-81
2023/08/13 14:15:34;;;;;;;0.65;0.25;;;;;;;31.60;100.00;101494.00;10416246;28;20051;-82
2023/08/13 14:20:35;;;;;;;0.00;0.00;;;;;;;31.18;100.00;101493.53;10410087;28;20045;-83
2023/08/13 14:25:37;;;;;;;0.10;0.10;;;;;;;32.43;100.00;101485.94;10417684;28;20041;-84
2023/08/13 14:30:39;;;;;;;0.00;0.00;;;;;;;31.07;100.00;101490.56;10396173;28;20061;-84
2023/08/13 14:35:41;;;;;;;0.10;0.10;;;;;;;32.15;100.00;101476.81;10399091;28;20045;-82
2023/08/13 14:40:42;;;;;;;0.38;0.38;;;;;;;31.67;100.00;101471.47;10414503;28;20041;-83
2023/08/13 14:45:44;;;;;;;0.10;0.10;;;;;;;31.02;100.00;101475.66;10402704;28;20060;-83
2023/08/13 14:50:46;;;;;;;0.52;0.17;;;;;;;31.30;100.00;101468.09;10401011;28;20052;-82
2023/08/13 14:55:47;;;;;;;0.13;0.10;;;;;;;32.93;100.00;101465.25;10401146;28;20730;-81
2023/08/13 15:00:49;;;;;;;0.03;0.03;;;;;;;32.56;100.00;101459.41;10434409;28;20393;-81
2023/08/13 15:05:51;;;;;;;0.08;0.08;;;;;;;32.43;100.00;101452.13;10411930;28;20045;-84
2023/08/13 15:10:53;;;;;;;0.05;0.05;;;;;;;33.46;100.00;101452.28;10395584;28;21418;-82
2023/08/13 15:15:54;;;;;;;0.00;0.00;;;;;;;33.05;100.00;101450.31;10395927;28;20674;-85
2023/08/13 15:20:56;;;;;;;0.00;0.00;;;;;;;33.01;100.00;101441.63;10401376;28;20188;-80
2023/08/13 15:25:58;;;;;;;4.20;0.10;;;;;;;32.93;100.00;101443.06;10417618;28;20409;-84
2023/08/13 15:31:00;;;;;;;0.00;0.00;;;;;;;32.69;100.00;101441.72;10419809;28;20044;-83
2023/08/13 15:36:03;;;;;;;0.68;0.30;;;;;;;32.79;100.00;101442.09;10396016;28;20096;-84
2023/08/13 15:41:04;;;;;;;0.00;0.00;;;;;;;32.32;100.00;101433.22;10409547;28;20049;-83
2023/08/13 15:46:06;;;;;;;1.98;0.15;;;;;;;31.91;100.00;101431.09;10398319;28;20046;-82
2023/08/13 15:51:08;;;;;;;0.47;0.40;;;;;;;31.94;100.00;101442.44;10412254;28;20065;-84
2023/08/13 15:56:10;;;;;;;0.50;0.25;;;;;;;32.16;100.00;101435.88;10410441;28;20451;-83
2023/08/13 16:01:11;;;;;;;0.10;0.10;;;;;;;31.53;100.00;101442.91;10406766;28;20032;-83
2023/08/13 16:06:13;;;;;;;0.00;0.00;;;;;;;31.57;100.00;101441.78;10407173;28;20062;-83
2023/08/13 16:11:15;;;;;;;0.13;0.13;;;;;;;31.19;100.00;101434.06;10416706;28;20503;-82
2023/08/13 16:16:17;;;;;;;0.85;0.52;;;;;;;31.74;100.00;101435.56;10410191;28;20866;-82
2023/08/13 16:21:19;;;;;;;0.00;0.00;;;;;;;31.61;100.00;101429.16;10408745;28;20037;-83
2023/08/13 16:26:20;;;;;;;1.38;1.05;;;;;;;31.59;100.00;101426.59;10405292;28;20053;-84
2023/08/13 16:31:22;;;;;;;0.00;0.00;;;;;;;32.25;100.00;101422.06;10393288;28;20052;-82
2023/08/13 16:36:24;;;;;;;0.10;0.10;;;;;;;32.41;100.00;101429.19;10405785;28;20107;-82
2023/08/13 16:41:26;;;;;;;0.55;0.20;;;;;;;32.39;100.00;101425.72;10411479;28;20060;-83
2023/08/13 16:46:27;;;;;;;0.00;0.00;;;;;;;33.27;100.00;101412.50;10410775;28;20056;-83
2023/08/13 16:51:29;;;;;;;0.00;0.00;;;;;;;32.95;100.00;101406.47;10394215;28;20053;-83
2023/08/13 16:56:35;;;;;;;0.00;0.00;;;;;;;32.30;100.00;101400.47;10407258;28;20399;-84
2023/08/13 17:01:37;;;;;;;0.00;0.00;;;;;;;31.95;100.00;101401.53;10404751;28;20045;-83
2023/08/13 17:06:38;;;;;;;0.00;0.00;;;;;;;31.77;100.00;101402.56;10409287;28;20065;-82
2023/08/13 17:11:40;;;;;;;0.10;0.10;;;;;;;32.16;100.00;101409.22;10389628;28;20094;-82
2023/08/13 17:16:42;;;;;;;0.15;0.08;;;;;;;33.52;100.00;101411.81;10414937;28;20485;-83
2023/08/13 17:21:43;;;;;;;0.00;0.00;;;;;;;32.47;100.00;101412.81;10415176;28;20045;-83
2023/08/13 17:26:45;;;;;;;0.00;0.00;;;;;;;33.13;100.00;101405.31;10391895;28;20064;-84
2023/08/13 17:31:48;;;;;;;0.05;0.05;;;;;;;32.90;100.00;101420.94;10397840;28;20041;-84
2023/08/13 17:36:49;;;;;;;0.05;0.05;;;;;;;33.82;100.00;101420.63;10411154;28;20091;-83
2023/08/13 17:41:51;;;;;;;0.10;0.00;;;;;;;33.31;100.00;101421.19;10400438;28;20049;-84
2023/08/13 17:46:53;;;;;;;0.25;0.25;;;;;;;31.87;100.00;101419.75;10440815;28;20046;-83
2023/08/13 17:51:55;;;;;;;3.95;0.75;;;;;;;31.54;100.00;101444.59;10432581;28;20060;-82
2023/08/13 17:56:56;;;;;;;1.95;0.22;;;;;;;31.17;100.00;101441.25;10416200;28;20473;-84
2023/08/13 18:01:58;;;;;;;1.08;0.30;;;;;;;30.37;100.00;101446.13;10418149;28;20385;-83
2023/08/13 18:07:00;;;;;;;0.20;0.20;;;;;;;29.89;100.00;101459.88;10402030;28;20064;-84
2023/08/13 18:12:02;;;;;;;0.03;0.03;;;;;;;29.49;100.00;101455.53;10403159;28;20431;-84
2023/08/13 18:17:04;;;;;;;0.10;0.10;;;;;;;30.48;100.00;101456.25;10425264;28;20129;-83
2023/08/13 18:22:05;;;;;;;0.20;0.20;;;;;;;30.21;100.00;101456.63;10396070;28;20055;-84
2023/08/13 18:27:07;;;;;;;0.55;0.28;;;;;;;31.45;100.00;101458.44;10412475;28;20042;-84
2023/08/13 18:32:09;;;;;;;0.00;0.00;;;;;;;30.57;100.00;101447.81;10416561;28;20424;-83
2023/08/13 18:37:11;;;;;;;0.00;0.00;;;;;;;31.28;100.00;101459.31;10416198;28;20049;-84
2023/08/13 18:42:13;;;;;;;0.00;0.00;;;;;;;30.85;100.00;101457.91;10400629;28;20051;-82
2023/08/13 18:47:15;;;;;;;0.10;0.10;;;;;;;31.08;100.00;101453.22;10415232;28;20056;-84
2023/08/13 18:52:16;;;;;;;0.00;0.00;;;;;;;31.23;100.00;101462.25;10414456;28;20060;-83
2023/08/13 18:57:19;;;;;;;0.00;0.00;;;;;;;31.20;100.00;101467.72;10413425;28;20052;-83
2023/08/13 19:02:21;;;;;;;0.00;0.00;;;;;;;30.92;100.00;101474.44;10414919;28;20128;-85
2023/08/13 19:07:23;;;;;;;0.00;0.00;;;;;;;30.76;100.00;101473.50;10383558;28;20480;-85
2023/08/13 19:12:24;;;;;;;0.10;0.00;;;;;;;30.80;100.00;101483.03;10394809;28;20048;-84
2023/08/13 19:17:26;;;;;;;0.20;0.15;;;;;;;30.94;100.00;101477.84;10415835;28;20049;-84
2023/08/13 19:22:28;;;;;;;0.38;0.10;;;;;;;30.57;100.00;101482.38;10393809;28;20068;-84
2023/08/13 19:27:29;;;;;;;0.00;0.00;;;;;;;30.09;100.00;101486.47;10415745;28;20042;-84
2023/08/13 19:32:31;;;;;;;0.10;0.08;;;;;;;29.90;100.00;101489.94;10415284;28;20042;-84
2023/08/13 19:37:33;;;;;;;0.03;0.00;;;;;;;29.64;100.00;101488.50;10413883;28;20065;-84
2023/08/13 19:42:35;;;;;;;0.00;0.00;;;;;;;29.97;100.00;101499.41;10412491;28;20075;-84
2023/08/13 19:47:37;;;;;;;0.00;0.00;;;;;;;29.18;100.00;101491.34;10413194;28;20111;-84
2023/08/13 19:52:39;;;;;;;0.00;0.00;;;;;;;28.77;100.00;101497.50;10414198;28;20140;-84
2023/08/13 19:57:40;;;;;;;0.00;0.00;;;;;;;29.24;100.00;101496.38;10414179;28;20404;-84
2023/08/13 20:02:42;;;;;;;0.47;0.45;;;;;;;28.73;100.00;101504.69;10395862;28;20041;-84
2023/08/13 20:07:44;;;;;;;0.00;0.00;;;;;;;28.99;100.00;101515.16;10413414;28;20496;-84
2023/08/13 20:12:45;;;;;;;0.10;0.10;;;;;;;29.04;100.00;101514.03;10412625;28;20041;-84
2023/08/13 20:17:47;;;;;;;0.00;0.00;;;;;;;28.63;100.00;101511.28;10392635;28;20137;-84
2023/08/13 20:22:49;;;;;;;0.00;0.00;;;;;;;28.87;100.00;101513.88;10413404;28;20045;-83
2023/08/13 20:27:51;;;;;;;0.00;0.00;;;;;;;29.01;100.00;101515.97;10413445;28;20147;-83
2023/08/13 20:32:52;;;;;;;0.00;0.00;;;;;;;28.77;100.00;101516.03;10413576;28;20056;-83
2023/08/13 20:37:54;;;;;;;0.05;0.05;;;;;;;29.10;100.00;101521.72;10430279;28;20107;-83
2023/08/13 20:42:56;;;;;;;0.22;0.00;;;;;;;28.85;100.00;101516.59;10397622;28;20073;-83
2023/08/13 20:47:58;;;;;;;0.20;0.10;;;;;;;28.17;100.00;101514.84;10413509;28;20049;-83
2023/08/13 20:53:00;;;;;;;0.00;0.00;;;;;;;27.85;100.00;101510.75;10413355;28;20045;-83
2023/08/13 20:58:02;;;;;;;0.00;0.00;;;;;;;27.63;100.00;101498.25;10377644;28;20052;-83
2023/08/13 21:03:04;;;;;;;0.00;0.00;;;;;;;27.77;100.00;101495.13;10391072;28;20034;-83
2023/08/13 21:08:06;;;;;;;0.10;0.10;;;;;;;27.69;100.00;101499.84;10396504;28;20052;-83
2023/08/13 21:13:08;;;;;;;0.22;0.22;;;;;;;28.06;100.00;101501.13;10396446;28;20052;-83
2023/08/13 21:18:09;;;;;;;0.00;0.00;;;;;;;28.06;100.00;101495.84;10428588;28;20060;-84
2023/08/13 21:23:11;;;;;;;0.00;0.00;;;;;;;28.11;100.00;101499.16;10399737;28;20103;-84
2023/08/13 21:28:13;;;;;;;0.15;0.03;;;;;;;28.08;100.00;101496.66;10403075;28;20493;-83
2023/08/13 21:33:15;;;;;;;0.00;0.00;;;;;;;27.69;100.00;101503.34;10412270;28;20046;-84
2023/08/13 21:38:16;;;;;;;0.10;0.05;;;;;;;27.73;100.00;101498.81;10390101;28;20057;-83
2023/08/13 21:43:18;;;;;;;0.32;0.10;;;;;;;27.33;100.00;101495.78;10404981;28;20052;-83
2023/08/13 21:48:20;;;;;;;0.13;0.05;;;;;;;27.55;100.00;101503.00;10390678;28;20064;-84
2023/08/13 21:53:21;;;;;;;0.00;0.00;;;;;;;27.13;100.00;101493.84;10411658;28;20054;-83
2023/08/13 21:58:23;;;;;;;0.15;0.08;;;;;;;27.16;100.00;101499.00;10411586;28;20061;-83
2023/08/13 22:03:25;;;;;;;0.10;0.10;;;;;;;26.94;100.00;101503.28;10412471;28;20045;-83
2023/08/13 22:08:27;;;;;;;0.00;0.00;;;;;;;27.10;100.00;101514.25;10395453;28;20049;-84
2023/08/13 22:13:28;;;;;;;0.00;0.00;;;;;;;26.62;100.00;101510.50;10382745;28;20132;-83
2023/08/13 22:18:30;;;;;;;0.00;0.00;;;;;;;26.55;100.00;101508.00;10412303;28;20058;-84
2023/08/13 22:23:32;;;;;;;0.47;0.15;;;;;;;26.24;100.00;101511.63;10391070;28;20049;-84
2023/08/13 22:28:34;;;;;;;0.08;0.08;;;;;;;26.71;100.00;101507.53;10418101;28;20053;-84
2023/08/13 22:33:35;;;;;;;0.00;0.00;;;;;;;26.57;100.00;101510.63;10419403;28;20362;-83
2023/08/13 22:38:37;;;;;;;0.10;0.05;;;;;;;26.49;100.00;101513.50;10418763;28;20051;-83
2023/08/13 22:43:39;;;;;;;0.10;0.10;;;;;;;26.31;100.00;101514.94;10418875;28;20047;-84
2023/08/13 22:48:40;;;;;;;0.10;0.10;;;;;;;26.62;100.00;101521.91;10419203;28;20053;-84
2023/08/13 22:53:42;;;;;;;0.00;0.00;;;;;;;26.32;100.00;101521.09;10392011;28;20397;-84
2023/08/13 22:58:43;;;;;;;0.00;0.00;;;;;;;26.48;100.00;101519.69;10402299;28;20073;-84
2023/08/13 23:03:45;;;;;;;0.00;0.00;;;;;;;26.71;100.00;101528.66;10377432;28;20042;-84
2023/08/13 23:08:47;;;;;;;0.00;0.00;;;;;;;26.47;100.00;101525.91;10380161;28;20490;-84
2023/08/13 23:13:48;;;;;;;0.10;0.10;;;;;;;26.35;100.00;101527.16;10401841;28;20067;-84
2023/08/13 23:18:50;;;;;;;0.10;0.10;;;;;;;26.36;100.00;101534.13;10417675;28;20053;-84
2023/08/13 23:23:52;;;;;;;0.20;0.15;;;;;;;26.07;100.00;101516.50;10433958;28;20050;-84